Waynesville, OH

8:39 AM EST on February 01, 2015 (GMT -0500)
Waynesville - Near North Water Tower | Change Station
CLOSE
Current Station
Personal Weather Station
Location: Waynesville, OH
Elevation: 1014 ft
Nearby Weather Stations

Elev 1014 ft 39.56 °N, 84.10 °W | Updated 1 second ago

Overcast
Overcast
33.1 °F
Feels Like 33 °F
N
3.0
Wind Variable Wind from East
Gusts 3.0 mph

Today
High -- | Low -- °F
--% Chance of Precip.
Yesterday
High -- | Low -- °F
Precip. -- in
7:44 AM 5:56 PM
Waxing Gibbous, 95% visible
Pressure 30.05 in
Visibility 10.0 miles
Clouds Few 2900 ft
Mostly Cloudy 9000 ft
Overcast 11000 ft
Windchill 33 °F
Dew Point 32 °F
Humidity 95%
Rainfall 0.00 in
Snow Depth Not available.
UV 0 out of 12
Pollen .10 out of 12
Air Quality Not available.
Flu Activity Not available.
METAR KMGY 011253Z AUTO 11013KT 10SM FEW029 BKN090 OVC110 01/M01 A3002 RMK AO2 UPB16E32 PRESFR SLP175 P0000 T00111011

More Conditions Fewer Conditions

Pressure 30.05 in
Visibility 10.0 miles
Clouds Few 2900 ft
Mostly Cloudy 9000 ft
Overcast 11000 ft
Windchill 33 °F
Dew Point 32 °F
Humidity 95%
Rainfall 0.00 in
Snow Depth Not available.
UV 0 out of 12
Pollen .10 out of 12
Air Quality Not available.
Flu Activity Not available.
METAR KMGY 011253Z AUTO 11013KT 10SM FEW029 BKN090 OVC110 01/M01 A3002 RMK AO2 UPB16E32 PRESFR SLP175 P0000 T00111011

More Conditions Fewer Conditions

10-Day Weather Forecast

Almanac

Astronomy

Feb. 01, 2015 Rise Set
Actual Time
Civil Twilight
Nautical Twilight
Astronomical Twilight
Moon
Length of Visible Light
Length of Day
Tomorrow will be .
, % of the Moon is Illuminated

Today's Extremes

State Highs State Lows

Community

WunderPhotos

Upload Photos

1,792,361 photos uploaded!

WunderBlogs® & News

Nearby

Air Quality

  Air Quality AQ Index Pollutant
Not available.

Snow Depth

Station Depth Elevation

Earthquake Activity

City Distance Mag. Time & Date
Minimum magnitude displayed is 2.5.

Coastal Water Temperatures

Place Temperature

Nearby Weather Stations